WXM80 ListenWXM80 Stop

You find our weather info also at:

UK Metoffice

WeatherCloud

Weather Underground

Northeastern Weather Network

AWEKAS

Citizen Weather Observer Program (CWOP)

HAMweather, WeatherForYou, PWS Weather


Weather Underground History page Text

Daily Summary for December 27, 2017 Units:  Both    English   Metric
« Previous Day
Next Day »
Daily Weekly Monthly Yearly Custom
  High: Low: Average:
Temperature: TemperatureF °F /  -17.8 °C 18.6 °F /  -7.4 °C 21.9 °F /  -5.6 °C
Dew Point: DewpointF °F /  -17.8 °C 3.9 °F /  -15.6 °C 7.3 °F /  -13.7 °C
Humidity: Humidity % 42 % 53 %
Wind Speed: WindSpeedMPH mph /  0 km/h - 4.9 mph /  7.9 km/h
Wind Gust: WindSpeedGustMPH mph /  0 km/h - -
Wind:- - WNW
Pressure: PressureIn in /  0 hPa 30.41 in /  1029.7 hPa -
Precipitation: 0.00 in /  0 mm    
Historical Graphs
 
 
Tabular Data for December 27, 2017
Time Temperature Dew Point Pressure Wind Wind Speed Wind Gust Humidity Rainfall Rate (Hourly)
TemperatureF °F /  -17.8 °C DewpointF °F /  -17.8 °C PressureIn in /  0 hPa Calm     Humidity % HourlyPrecipIn in /  0 mm
00:00 24.3 °F /  -4.3 °C 10.4 °F /  -12 °C 30.45 in /  1031 hPa NW 4.6 mph /  7.4 km/h 10.4 mph /  16.7 km/h 55 % 0.00 in /  0 mm
00:01 24.3 °F /  -4.3 °C 10.4 °F /  -12 °C 30.45 in /  1031 hPa NW 4.5 mph /  7.2 km/h 10.4 mph /  16.7 km/h 55 % 0.00 in /  0 mm
00:06 24.3 °F /  -4.3 °C 10.4 °F /  -12 °C 30.45 in /  1031 hPa NW 5.0 mph /  8 km/h 10.0 mph /  16.1 km/h 55 % 0.00 in /  0 mm
00:07 24.2 °F /  -4.3 °C 10.3 °F /  -12.1 °C 30.45 in /  1031 hPa NW 3.9 mph /  6.3 km/h 10.4 mph /  16.7 km/h 55 % 0.00 in /  0 mm
00:13 24.2 °F /  -4.3 °C 10.3 °F /  -12.1 °C 30.44 in /  1030.7 hPa WNW 2.9 mph /  4.7 km/h 9.2 mph /  14.8 km/h 55 % 0.00 in /  0 mm
00:16 24.1 °F /  -4.4 °C 11.0 °F /  -11.7 °C 30.45 in /  1031 hPa NW 3.6 mph /  5.8 km/h 6.9 mph /  11.1 km/h 57 % 0.00 in /  0 mm
00:21 24.0 °F /  -4.4 °C 11.0 °F /  -11.7 °C 30.45 in /  1031 hPa WNW 4.0 mph /  6.4 km/h 8.0 mph /  12.9 km/h 57 % 0.00 in /  0 mm
00:26 24.0 °F /  -4.4 °C 11.0 °F /  -11.7 °C 30.45 in /  1031 hPa NW 2.9 mph /  4.7 km/h 8.1 mph /  13 km/h 57 % 0.00 in /  0 mm
00:32 23.9 °F /  -4.5 °C 10.9 °F /  -11.7 °C 30.45 in /  1031 hPa North 5.8 mph /  9.3 km/h 10.4 mph /  16.7 km/h 57 % 0.00 in /  0 mm
00:37 23.8 °F /  -4.6 °C 10.4 °F /  -12 °C 30.45 in /  1031 hPa NNW 3.3 mph /  5.3 km/h 9.2 mph /  14.8 km/h 56 % 0.00 in /  0 mm
00:39 23.8 °F /  -4.6 °C 10.8 °F /  -11.8 °C 30.45 in /  1031 hPa WNW 7.7 mph /  12.4 km/h 10.4 mph /  16.7 km/h 57 % 0.00 in /  0 mm
00:44 23.6 °F /  -4.7 °C 10.2 °F /  -12.1 °C 30.45 in /  1031 hPa NNW 4.8 mph /  7.7 km/h 9.2 mph /  14.8 km/h 56 % 0.00 in /  0 mm
00:46 23.6 °F /  -4.7 °C 10.2 °F /  -12.1 °C 30.44 in /  1030.7 hPa NW 2.9 mph /  4.7 km/h 5.8 mph /  9.3 km/h 56 % 0.00 in /  0 mm
00:51 23.6 °F /  -4.7 °C 10.2 °F /  -12.1 °C 30.45 in /  1031 hPa NW 4.5 mph /  7.2 km/h 11.5 mph /  18.5 km/h 56 % 0.00 in /  0 mm
00:52 23.5 °F /  -4.7 °C 10.1 °F /  -12.2 °C 30.45 in /  1031 hPa NNW 5.7 mph /  9.2 km/h 9.2 mph /  14.8 km/h 56 % 0.00 in /  0 mm
00:57 23.5 °F /  -4.7 °C 10.1 °F /  -12.2 °C 30.45 in /  1031 hPa NW 4.3 mph /  6.9 km/h 9.2 mph /  14.8 km/h 56 % 0.00 in /  0 mm
01:01 23.5 °F /  -4.7 °C 10.5 °F /  -11.9 °C 30.45 in /  1031 hPa NW 6.4 mph /  10.3 km/h 11.5 mph /  18.5 km/h 57 % 0.00 in /  0 mm
01:06 23.5 °F /  -4.7 °C 10.1 °F /  -12.2 °C 30.45 in /  1031 hPa NW 7.8 mph /  12.6 km/h 11.5 mph /  18.5 km/h 56 % 0.00 in /  0 mm
01:13 23.4 °F /  -4.8 °C 10.4 °F /  -12 °C 30.44 in /  1030.7 hPa NW 4.9 mph /  7.9 km/h 10.4 mph /  16.7 km/h 57 % 0.00 in /  0 mm
01:15 23.4 °F /  -4.8 °C 10.4 °F /  -12 °C 30.45 in /  1031 hPa WNW 7.5 mph /  12.1 km/h 10.4 mph /  16.7 km/h 57 % 0.00 in /  0 mm
01:20 23.4 °F /  -4.8 °C 10.8 °F /  -11.8 °C 30.45 in /  1031 hPa WNW 3.2 mph /  5.1 km/h 6.0 mph /  9.7 km/h 58 % 0.00 in /  0 mm
01:21 23.5 °F /  -4.7 °C 10.9 °F /  -11.7 °C 30.45 in /  1031 hPa West 3.8 mph /  6.1 km/h 11.5 mph /  18.5 km/h 58 % 0.00 in /  0 mm
01:22 23.4 °F /  -4.8 °C 10.8 °F /  -11.8 °C 30.45 in /  1031 hPa WNW 3.5 mph /  5.6 km/h 5.0 mph /  8 km/h 58 % 0.00 in /  0 mm
01:26 23.4 °F /  -4.8 °C 9.6 °F /  -12.4 °C 30.45 in /  1031 hPa NNW 7.6 mph /  12.2 km/h 12.7 mph /  20.4 km/h 55 % 0.00 in /  0 mm
01:31 23.3 °F /  -4.8 °C 9.5 °F /  -12.5 °C 30.45 in /  1031 hPa NNW 6.7 mph /  10.8 km/h 10.4 mph /  16.7 km/h 55 % 0.00 in /  0 mm
01:32 23.3 °F /  -4.8 °C 9.5 °F /  -12.5 °C 30.45 in /  1031 hPa WSW 5.6 mph /  9 km/h 9.2 mph /  14.8 km/h 55 % 0.00 in /  0 mm
01:37 23.3 °F /  -4.8 °C 9.9 °F /  -12.3 °C 30.45 in /  1031 hPa NW 5.9 mph /  9.5 km/h 10.4 mph /  16.7 km/h 56 % 0.00 in /  0 mm
01:38 23.3 °F /  -4.8 °C 9.9 °F /  -12.3 °C 30.45 in /  1031 hPa WNW 5.9 mph /  9.5 km/h 10.4 mph /  16.7 km/h 56 % 0.00 in /  0 mm
01:39 23.3 °F /  -4.8 °C 9.9 °F /  -12.3 °C 30.45 in /  1031 hPa West 6.9 mph /  11.1 km/h 11.5 mph /  18.5 km/h 56 % 0.00 in /  0 mm
01:44 23.2 °F /  -4.9 °C 9.4 °F /  -12.6 °C 30.45 in /  1031 hPa NW 6.9 mph /  11.1 km/h 10.0 mph /  16.1 km/h 55 % 0.00 in /  0 mm
01:49 23.0 °F /  -5 °C 9.2 °F /  -12.7 °C 30.45 in /  1031 hPa WNW 6.5 mph /  10.5 km/h 13.8 mph /  22.2 km/h 55 % 0.00 in /  0 mm
01:54 23.0 °F /  -5 °C 10.0 °F /  -12.2 °C 30.46 in /  1031.4 hPa WNW 4.6 mph /  7.4 km/h 6.0 mph /  9.7 km/h 57 % 0.00 in /  0 mm
01:55 22.9 °F /  -5.1 °C 9.5 °F /  -12.5 °C 30.45 in /  1031 hPa NW 5.3 mph /  8.5 km/h 9.2 mph /  14.8 km/h 56 % 0.00 in /  0 mm
02:00 22.8 °F /  -5.1 °C 10.2 °F /  -12.1 °C 30.46 in /  1031.4 hPa NW 7.2 mph /  11.6 km/h 9.2 mph /  14.8 km/h 58 % 0.00 in /  0 mm
02:05 22.8 °F /  -5.1 °C 9.8 °F /  -12.3 °C 30.46 in /  1031.4 hPa WNW 5.0 mph /  8 km/h 9.2 mph /  14.8 km/h 57 % 0.00 in /  0 mm
02:10 22.7 °F /  -5.2 °C 9.7 °F /  -12.4 °C 30.46 in /  1031.4 hPa West 4.3 mph /  6.9 km/h 9.2 mph /  14.8 km/h 57 % 0.00 in /  0 mm
02:15 22.7 °F /  -5.2 °C 10.1 °F /  -12.2 °C 30.46 in /  1031.4 hPa WNW 4.6 mph /  7.4 km/h 11.5 mph /  18.5 km/h 58 % 0.00 in /  0 mm
02:16 22.7 °F /  -5.2 °C 10.1 °F /  -12.2 °C 30.46 in /  1031.4 hPa NNW 3.8 mph /  6.1 km/h 10.4 mph /  16.7 km/h 58 % 0.00 in /  0 mm
02:18 22.6 °F /  -5.2 °C 10.0 °F /  -12.2 °C 30.46 in /  1031.4 hPa NNW 2.3 mph /  3.7 km/h 5.8 mph /  9.3 km/h 58 % 0.00 in /  0 mm
02:21 22.6 °F /  -5.2 °C 9.6 °F /  -12.4 °C 30.46 in /  1031.4 hPa NNW 4.9 mph /  7.9 km/h 9.2 mph /  14.8 km/h 57 % 0.00 in /  0 mm
02:24 22.6 °F /  -5.2 °C 10.0 °F /  -12.2 °C 30.46 in /  1031.4 hPa NW 7.6 mph /  12.2 km/h 13.8 mph /  22.2 km/h 58 % 0.00 in /  0 mm
02:29 22.6 °F /  -5.2 °C 10.0 °F /  -12.2 °C 30.46 in /  1031.4 hPa WSW 6.3 mph /  10.1 km/h 10.0 mph /  16.1 km/h 58 % 0.00 in /  0 mm
02:34 22.6 °F /  -5.2 °C 10.4 °F /  -12 °C 30.46 in /  1031.4 hPa West 3.6 mph /  5.8 km/h 4.0 mph /  6.4 km/h 59 % 0.00 in /  0 mm
02:39 22.6 °F /  -5.2 °C 10.0 °F /  -12.2 °C 30.47 in /  1031.7 hPa NNW 2.9 mph /  4.7 km/h 11.0 mph /  17.7 km/h 58 % 0.00 in /  0 mm
02:44 22.5 °F /  -5.3 °C 9.9 °F /  -12.3 °C 30.47 in /  1031.7 hPa NW 4.7 mph /  7.6 km/h 15.0 mph /  24.1 km/h 58 % 0.00 in /  0 mm
02:49 22.5 °F /  -5.3 °C 9.9 °F /  -12.3 °C 30.47 in /  1031.7 hPa NW 5.3 mph /  8.5 km/h 10.4 mph /  16.7 km/h 58 % 0.00 in /  0 mm
02:54 22.5 °F /  -5.3 °C 9.9 °F /  -12.3 °C 30.47 in /  1031.7 hPa NW 5.6 mph /  9 km/h 9.0 mph /  14.5 km/h 58 % 0.00 in /  0 mm
02:59 22.5 °F /  -5.3 °C 10.3 °F /  -12.1 °C 30.47 in /  1031.7 hPa West 6.5 mph /  10.5 km/h 11.0 mph /  17.7 km/h 59 % 0.00 in /  0 mm
03:02 22.5 °F /  -5.3 °C 9.9 °F /  -12.3 °C 30.47 in /  1031.7 hPa NW 6.0 mph /  9.7 km/h 10.0 mph /  16.1 km/h 58 % 0.00 in /  0 mm
03:04 22.5 °F /  -5.3 °C 9.9 °F /  -12.3 °C 30.47 in /  1031.7 hPa NW 5.7 mph /  9.2 km/h 12.7 mph /  20.4 km/h 58 % 0.00 in /  0 mm
03:09 22.4 °F /  -5.3 °C 9.4 °F /  -12.6 °C 30.46 in /  1031.4 hPa WNW 3.9 mph /  6.3 km/h 6.9 mph /  11.1 km/h 57 % 0.00 in /  0 mm
03:14 22.4 °F /  -5.3 °C 9.8 °F /  -12.3 °C 30.47 in /  1031.7 hPa NW 4.7 mph /  7.6 km/h 8.1 mph /  13 km/h 58 % 0.00 in /  0 mm
03:15 22.4 °F /  -5.3 °C 9.8 °F /  -12.3 °C 30.46 in /  1031.4 hPa NW 4.1 mph /  6.6 km/h 8.1 mph /  13 km/h 58 % 0.00 in /  0 mm
03:20 22.3 °F /  -5.4 °C 9.7 °F /  -12.4 °C 30.46 in /  1031.4 hPa WNW 4.0 mph /  6.4 km/h 12.7 mph /  20.4 km/h 58 % 0.00 in /  0 mm
03:25 22.2 °F /  -5.4 °C 9.3 °F /  -12.6 °C 30.47 in /  1031.7 hPa NNW 3.9 mph /  6.3 km/h 9.2 mph /  14.8 km/h 57 % 0.00 in /  0 mm
03:27 22.2 °F /  -5.4 °C 9.7 °F /  -12.4 °C 30.47 in /  1031.7 hPa North 6.2 mph /  10 km/h 10.4 mph /  16.7 km/h 58 % 0.00 in /  0 mm
03:32 22.2 °F /  -5.4 °C 9.7 °F /  -12.4 °C 30.47 in /  1031.7 hPa NNW 6.2 mph /  10 km/h 12.0 mph /  19.3 km/h 58 % 0.00 in /  0 mm
03:37 22.2 °F /  -5.4 °C 9.7 °F /  -12.4 °C 30.47 in /  1031.7 hPa West 6.4 mph /  10.3 km/h 10.4 mph /  16.7 km/h 58 % 0.00 in /  0 mm
03:42 22.2 °F /  -5.4 °C 10.0 °F /  -12.2 °C 30.47 in /  1031.7 hPa NW 6.1 mph /  9.8 km/h 12.0 mph /  19.3 km/h 59 % 0.00 in /  0 mm
03:48 22.1 °F /  -5.5 °C 9.6 °F /  -12.4 °C 30.47 in /  1031.7 hPa NW 5.1 mph /  8.2 km/h 11.5 mph /  18.5 km/h 58 % 0.00 in /  0 mm
03:52 22.1 °F /  -5.5 °C 9.6 °F /  -12.4 °C 30.47 in /  1031.7 hPa NW 4.8 mph /  7.7 km/h 8.0 mph /  12.9 km/h 58 % 0.00 in /  0 mm
03:57 22.0 °F /  -5.6 °C 8.7 °F /  -12.9 °C 30.47 in /  1031.7 hPa NW 5.1 mph /  8.2 km/h 9.0 mph /  14.5 km/h 56 % 0.00 in /  0 mm
04:00 22.0 °F /  -5.6 °C 8.7 °F /  -12.9 °C 30.47 in /  1031.7 hPa WNW 7.2 mph /  11.6 km/h 13.0 mph /  20.9 km/h 56 % 0.00 in /  0 mm
04:05 21.9 °F /  -5.6 °C 8.2 °F /  -13.2 °C 30.47 in /  1031.7 hPa WSW 6.5 mph /  10.5 km/h 13.8 mph /  22.2 km/h 55 % 0.00 in /  0 mm
04:10 21.8 °F /  -5.7 °C 8.5 °F /  -13.1 °C 30.47 in /  1031.7 hPa WNW 3.8 mph /  6.1 km/h 10.0 mph /  16.1 km/h 56 % 0.00 in /  0 mm
04:13 21.8 °F /  -5.7 °C 8.9 °F /  -12.8 °C 30.47 in /  1031.7 hPa NW 5.2 mph /  8.4 km/h 7.0 mph /  11.3 km/h 57 % 0.00 in /  0 mm
04:19 21.8 °F /  -5.7 °C 8.9 °F /  -12.8 °C 30.47 in /  1031.7 hPa WNW 2.1 mph /  3.4 km/h 11.5 mph /  18.5 km/h 57 % 0.00 in /  0 mm
04:24 21.7 °F /  -5.7 °C 8.8 °F /  -12.9 °C 30.47 in /  1031.7 hPa NNW 2.5 mph /  4 km/h 8.1 mph /  13 km/h 57 % 0.00 in /  0 mm
04:25 21.7 °F /  -5.7 °C 8.8 °F /  -12.9 °C 30.47 in /  1031.7 hPa West 6.4 mph /  10.3 km/h 15.0 mph /  24.1 km/h 57 % 0.00 in /  0 mm
04:29 21.7 °F /  -5.7 °C 8.4 °F /  -13.1 °C 30.47 in /  1031.7 hPa NW 4.8 mph /  7.7 km/h 9.2 mph /  14.8 km/h 56 % 0.00 in /  0 mm
04:31 21.7 °F /  -5.7 °C 8.4 °F /  -13.1 °C 30.47 in /  1031.7 hPa WNW 4.8 mph /  7.7 km/h 9.2 mph /  14.8 km/h 56 % 0.00 in /  0 mm
04:36 21.7 °F /  -5.7 °C 9.2 °F /  -12.7 °C 30.48 in /  1032.1 hPa NW 1.5 mph /  2.4 km/h 6.9 mph /  11.1 km/h 58 % 0.00 in /  0 mm
04:41 21.6 °F /  -5.8 °C 9.1 °F /  -12.7 °C 30.48 in /  1032.1 hPa NW 7.2 mph /  11.6 km/h 10.4 mph /  16.7 km/h 58 % 0.00 in /  0 mm
04:46 21.6 °F /  -5.8 °C 9.5 °F /  -12.5 °C 30.48 in /  1032.1 hPa NNE 1.3 mph /  2.1 km/h 5.8 mph /  9.3 km/h 59 % 0.00 in /  0 mm
04:51 21.6 °F /  -5.8 °C 9.8 °F /  -12.3 °C 30.48 in /  1032.1 hPa West 3.2 mph /  5.1 km/h 5.8 mph /  9.3 km/h 60 % 0.00 in /  0 mm
04:52 21.7 °F /  -5.7 °C 9.6 °F /  -12.4 °C 30.48 in /  1032.1 hPa NW 3.1 mph /  5 km/h 8.0 mph /  12.9 km/h 59 % 0.00 in /  0 mm
04:57 21.6 °F /  -5.8 °C 9.5 °F /  -12.5 °C 30.48 in /  1032.1 hPa NW 3.0 mph /  4.8 km/h 5.8 mph /  9.3 km/h 59 % 0.00 in /  0 mm
05:02 21.6 °F /  -5.8 °C 9.5 °F /  -12.5 °C 30.48 in /  1032.1 hPa NW 5.6 mph /  9 km/h 7.0 mph /  11.3 km/h 59 % 0.00 in /  0 mm
05:03 21.5 °F /  -5.8 °C 9.0 °F /  -12.8 °C 30.48 in /  1032.1 hPa NW 5.3 mph /  8.5 km/h 11.5 mph /  18.5 km/h 58 % 0.00 in /  0 mm
05:06 21.5 °F /  -5.8 °C 9.0 °F /  -12.8 °C 30.47 in /  1031.7 hPa NNW 4.5 mph /  7.2 km/h 9.0 mph /  14.5 km/h 58 % 0.00 in /  0 mm
05:10 21.5 °F /  -5.8 °C 9.0 °F /  -12.8 °C 30.48 in /  1032.1 hPa WNW 4.9 mph /  7.9 km/h 9.2 mph /  14.8 km/h 58 % 0.00 in /  0 mm
05:12 21.5 °F /  -5.8 °C 9.0 °F /  -12.8 °C 30.47 in /  1031.7 hPa WNW 4.7 mph /  7.6 km/h 8.1 mph /  13 km/h 58 % 0.00 in /  0 mm
05:16 21.4 °F /  -5.9 °C 8.9 °F /  -12.8 °C 30.47 in /  1031.7 hPa WNW 3.7 mph /  6 km/h 11.5 mph /  18.5 km/h 58 % 0.00 in /  0 mm
05:21 21.4 °F /  -5.9 °C 9.3 °F /  -12.6 °C 30.48 in /  1032.1 hPa WNW 3.3 mph /  5.3 km/h 6.9 mph /  11.1 km/h 59 % 0.00 in /  0 mm
05:27 21.3 °F /  -5.9 °C 8.8 °F /  -12.9 °C 30.48 in /  1032.1 hPa WNW 5.3 mph /  8.5 km/h 9.0 mph /  14.5 km/h 58 % 0.00 in /  0 mm
05:28 21.3 °F /  -5.9 °C 8.8 °F /  -12.9 °C 30.48 in /  1032.1 hPa NNW 6.2 mph /  10 km/h 9.2 mph /  14.8 km/h 58 % 0.00 in /  0 mm
05:33 21.3 °F /  -5.9 °C 9.6 °F /  -12.4 °C 30.48 in /  1032.1 hPa WSW 2.3 mph /  3.7 km/h 9.0 mph /  14.5 km/h 60 % 0.00 in /  0 mm
05:37 21.3 °F /  -5.9 °C 9.2 °F /  -12.7 °C 30.48 in /  1032.1 hPa NW 2.5 mph /  4 km/h 8.1 mph /  13 km/h 59 % 0.00 in /  0 mm
05:42 21.3 °F /  -5.9 °C 9.2 °F /  -12.7 °C 30.48 in /  1032.1 hPa NNW 1.7 mph /  2.7 km/h 8.1 mph /  13 km/h 59 % 0.00 in /  0 mm
05:46 21.3 °F /  -5.9 °C 9.2 °F /  -12.7 °C 30.48 in /  1032.1 hPa NW 2.0 mph /  3.2 km/h 8.0 mph /  12.9 km/h 59 % 0.00 in /  0 mm
05:51 21.2 °F /  -6 °C 8.7 °F /  -12.9 °C 30.49 in /  1032.4 hPa WNW 2.0 mph /  3.2 km/h 12.0 mph /  19.3 km/h 58 % 0.00 in /  0 mm
05:56 21.2 °F /  -6 °C 9.1 °F /  -12.7 °C 30.49 in /  1032.4 hPa WNW 2.0 mph /  3.2 km/h 4.6 mph /  7.4 km/h 59 % 0.00 in /  0 mm
06:01 21.2 °F /  -6 °C 8.7 °F /  -12.9 °C 30.49 in /  1032.4 hPa NW 2.5 mph /  4 km/h 6.9 mph /  11.1 km/h 58 % 0.00 in /  0 mm
06:05 21.2 °F /  -6 °C 8.7 °F /  -12.9 °C 30.49 in /  1032.4 hPa NW 4.2 mph /  6.8 km/h 10.4 mph /  16.7 km/h 58 % 0.00 in /  0 mm
06:10 21.1 °F /  -6.1 °C 9.0 °F /  -12.8 °C 30.49 in /  1032.4 hPa NW 5.2 mph /  8.4 km/h 9.2 mph /  14.8 km/h 59 % 0.00 in /  0 mm
06:12 21.1 °F /  -6.1 °C 9.0 °F /  -12.8 °C 30.49 in /  1032.4 hPa West 2.0 mph /  3.2 km/h 8.1 mph /  13 km/h 59 % 0.00 in /  0 mm
06:15 21.1 °F /  -6.1 °C 9.0 °F /  -12.8 °C 30.50 in /  1032.7 hPa NNW 4.5 mph /  7.2 km/h 9.2 mph /  14.8 km/h 59 % 0.00 in /  0 mm
06:20 21.1 °F /  -6.1 °C 9.0 °F /  -12.8 °C 30.49 in /  1032.4 hPa WNW 3.2 mph /  5.1 km/h 5.8 mph /  9.3 km/h 59 % 0.00 in /  0 mm
06:25 21.0 °F /  -6.1 °C 8.9 °F /  -12.8 °C 30.50 in /  1032.7 hPa WNW 1.1 mph /  1.8 km/h 4.6 mph /  7.4 km/h 59 % 0.00 in /  0 mm
06:27 21.0 °F /  -6.1 °C 8.5 °F /  -13.1 °C 30.50 in /  1032.7 hPa WNW 2.0 mph /  3.2 km/h 6.0 mph /  9.7 km/h 58 % 0.00 in /  0 mm
06:32 21.0 °F /  -6.1 °C 9.3 °F /  -12.6 °C 30.50 in /  1032.7 hPa NW 2.0 mph /  3.2 km/h 5.0 mph /  8 km/h 60 % 0.00 in /  0 mm
06:33 21.0 °F /  -6.1 °C 9.3 °F /  -12.6 °C 30.50 in /  1032.7 hPa NW 5.8 mph /  9.3 km/h 10.4 mph /  16.7 km/h 60 % 0.00 in /  0 mm
06:38 20.9 °F /  -6.2 °C 8.4 °F /  -13.1 °C 30.50 in /  1032.7 hPa WNW 2.0 mph /  3.2 km/h 5.8 mph /  9.3 km/h 58 % 0.00 in /  0 mm
06:41 20.9 °F /  -6.2 °C 8.4 °F /  -13.1 °C 30.50 in /  1032.7 hPa NW 3.0 mph /  4.8 km/h 7.0 mph /  11.3 km/h 58 % 0.00 in /  0 mm
06:46 20.8 °F /  -6.2 °C 9.1 °F /  -12.7 °C 30.49 in /  1032.4 hPa NNW 2.5 mph /  4 km/h 8.1 mph /  13 km/h 60 % 0.00 in /  0 mm
06:48 20.8 °F /  -6.2 °C 9.1 °F /  -12.7 °C 30.50 in /  1032.7 hPa NW 2.4 mph /  3.9 km/h 6.9 mph /  11.1 km/h 60 % 0.00 in /  0 mm
06:53 20.8 °F /  -6.2 °C 9.1 °F /  -12.7 °C 30.50 in /  1032.7 hPa WNW 3.2 mph /  5.1 km/h 8.1 mph /  13 km/h 60 % 0.00 in /  0 mm
06:58 20.7 °F /  -6.3 °C 8.6 °F /  -13 °C 30.51 in /  1033.1 hPa WNW 3.7 mph /  6 km/h 9.2 mph /  14.8 km/h 59 % 0.00 in /  0 mm
07:03 20.7 °F /  -6.3 °C 8.6 °F /  -13 °C 30.50 in /  1032.7 hPa NNW 4.6 mph /  7.4 km/h 6.9 mph /  11.1 km/h 59 % 0.00 in /  0 mm
07:07 20.6 °F /  -6.3 °C 8.5 °F /  -13.1 °C 30.50 in /  1032.7 hPa NNW 5.4 mph /  8.7 km/h 11.5 mph /  18.5 km/h 59 % 0.00 in /  0 mm
07:09 20.6 °F /  -6.3 °C 8.5 °F /  -13.1 °C 30.50 in /  1032.7 hPa NNW 4.0 mph /  6.4 km/h 8.1 mph /  13 km/h 59 % 0.00 in /  0 mm
07:15 20.5 °F /  -6.4 °C 8.4 °F /  -13.1 °C 30.50 in /  1032.7 hPa WNW 1.8 mph /  2.9 km/h 6.0 mph /  9.7 km/h 59 % 0.00 in /  0 mm
07:17 20.4 °F /  -6.4 °C 8.3 °F /  -13.2 °C 30.50 in /  1032.7 hPa NNW 3.3 mph /  5.3 km/h 8.1 mph /  13 km/h 59 % 0.00 in /  0 mm
07:22 20.3 °F /  -6.5 °C 8.2 °F /  -13.2 °C 30.50 in /  1032.7 hPa WNW 3.9 mph /  6.3 km/h 8.0 mph /  12.9 km/h 59 % 0.00 in /  0 mm
07:23 20.3 °F /  -6.5 °C 8.2 °F /  -13.2 °C 30.50 in /  1032.7 hPa NW 4.5 mph /  7.2 km/h 8.0 mph /  12.9 km/h 59 % 0.00 in /  0 mm
07:28 20.3 °F /  -6.5 °C 8.2 °F /  -13.2 °C 30.50 in /  1032.7 hPa West 3.5 mph /  5.6 km/h 8.0 mph /  12.9 km/h 59 % 0.00 in /  0 mm
07:32 20.2 °F /  -6.6 °C 8.1 °F /  -13.3 °C 30.50 in /  1032.7 hPa WNW 6.7 mph /  10.8 km/h 11.0 mph /  17.7 km/h 59 % 0.00 in /  0 mm
07:37 20.2 °F /  -6.6 °C 7.8 °F /  -13.4 °C 30.49 in /  1032.4 hPa NW 3.3 mph /  5.3 km/h 5.8 mph /  9.3 km/h 58 % 0.00 in /  0 mm
07:38 20.2 °F /  -6.6 °C 7.8 °F /  -13.4 °C 30.49 in /  1032.4 hPa WNW 2.1 mph /  3.4 km/h 6.9 mph /  11.1 km/h 58 % 0.00 in /  0 mm
07:41 20.1 °F /  -6.6 °C 7.7 °F /  -13.5 °C 30.49 in /  1032.4 hPa WNW 2.0 mph /  3.2 km/h 6.9 mph /  11.1 km/h 58 % 0.00 in /  0 mm
07:46 20.0 °F /  -6.7 °C 8.3 °F /  -13.2 °C 30.49 in /  1032.4 hPa NW 1.1 mph /  1.8 km/h 3.5 mph /  5.6 km/h 60 % 0.00 in /  0 mm
07:51 20.0 °F /  -6.7 °C 8.0 °F /  -13.3 °C 30.50 in /  1032.7 hPa WNW 4.5 mph /  7.2 km/h 7.0 mph /  11.3 km/h 59 % 0.00 in /  0 mm
07:56 19.9 °F /  -6.7 °C 7.9 °F /  -13.4 °C 30.50 in /  1032.7 hPa West 4.4 mph /  7.1 km/h 6.9 mph /  11.1 km/h 59 % 0.00 in /  0 mm
08:00 19.9 °F /  -6.7 °C 8.2 °F /  -13.2 °C 30.50 in /  1032.7 hPa WNW 5.2 mph /  8.4 km/h 11.0 mph /  17.7 km/h 60 % 0.00 in /  0 mm
08:05 19.9 °F /  -6.7 °C 7.5 °F /  -13.6 °C 30.50 in /  1032.7 hPa West 3.2 mph /  5.1 km/h 5.0 mph /  8 km/h 58 % 0.00 in /  0 mm
08:06 19.9 °F /  -6.7 °C 7.9 °F /  -13.4 °C 30.50 in /  1032.7 hPa WNW 3.3 mph /  5.3 km/h 8.1 mph /  13 km/h 59 % 0.00 in /  0 mm
08:12 19.9 °F /  -6.7 °C 7.5 °F /  -13.6 °C 30.50 in /  1032.7 hPa WNW 2.7 mph /  4.3 km/h 8.1 mph /  13 km/h 58 % 0.00 in /  0 mm
08:17 20.0 °F /  -6.7 °C 8.3 °F /  -13.2 °C 30.50 in /  1032.7 hPa NW 1.9 mph /  3.1 km/h 6.9 mph /  11.1 km/h 60 % 0.00 in /  0 mm
08:18 20.0 °F /  -6.7 °C 8.3 °F /  -13.2 °C 30.49 in /  1032.4 hPa WNW 2.8 mph /  4.5 km/h 4.6 mph /  7.4 km/h 60 % 0.00 in /  0 mm
08:23 20.1 °F /  -6.6 °C 8.1 °F /  -13.3 °C 30.50 in /  1032.7 hPa NW 4.5 mph /  7.2 km/h 11.5 mph /  18.5 km/h 59 % 0.00 in /  0 mm
08:27 20.2 °F /  -6.6 °C 8.1 °F /  -13.3 °C 30.50 in /  1032.7 hPa West 3.3 mph /  5.3 km/h 11.5 mph /  18.5 km/h 59 % 0.00 in /  0 mm
08:29 20.3 °F /  -6.5 °C 7.9 °F /  -13.4 °C 30.50 in /  1032.7 hPa WNW 3.1 mph /  5 km/h 8.0 mph /  12.9 km/h 58 % 0.00 in /  0 mm
08:34 20.3 °F /  -6.5 °C 7.9 °F /  -13.4 °C 30.50 in /  1032.7 hPa WNW 4.5 mph /  7.2 km/h 11.5 mph /  18.5 km/h 58 % 0.00 in /  0 mm
08:39 20.4 °F /  -6.4 °C 8.3 °F /  -13.2 °C 30.50 in /  1032.7 hPa NW 4.9 mph /  7.9 km/h 9.2 mph /  14.8 km/h 59 % 0.00 in /  0 mm
08:41 20.4 °F /  -6.4 °C 8.0 °F /  -13.3 °C 30.50 in /  1032.7 hPa NW 3.0 mph /  4.8 km/h 9.0 mph /  14.5 km/h 58 % 0.00 in /  0 mm
08:45 20.5 °F /  -6.4 °C 8.0 °F /  -13.3 °C 30.50 in /  1032.7 hPa NNW 4.1 mph /  6.6 km/h 7.0 mph /  11.3 km/h 58 % 0.00 in /  0 mm
08:46 20.5 °F /  -6.4 °C 8.0 °F /  -13.3 °C 30.50 in /  1032.7 hPa WSW 5.5 mph /  8.9 km/h 11.0 mph /  17.7 km/h 58 % 0.00 in /  0 mm
08:51 20.6 °F /  -6.3 °C 8.1 °F /  -13.3 °C 30.50 in /  1032.7 hPa NW 6.9 mph /  11.1 km/h 11.5 mph /  18.5 km/h 58 % 0.00 in /  0 mm
08:52 20.6 °F /  -6.3 °C 7.8 °F /  -13.4 °C 30.50 in /  1032.7 hPa NW 2.6 mph /  4.2 km/h 6.9 mph /  11.1 km/h 57 % 0.00 in /  0 mm
08:57 20.7 °F /  -6.3 °C 8.2 °F /  -13.2 °C 30.50 in /  1032.7 hPa NW 3.2 mph /  5.1 km/h 4.0 mph /  6.4 km/h 58 % 0.00 in /  0 mm
09:02 20.7 °F /  -6.3 °C 7.9 °F /  -13.4 °C 30.50 in /  1032.7 hPa West 4.2 mph /  6.8 km/h 8.1 mph /  13 km/h 57 % 0.00 in /  0 mm
09:03 20.7 °F /  -6.3 °C 7.9 °F /  -13.4 °C 30.50 in /  1032.7 hPa NW 2.9 mph /  4.7 km/h 6.0 mph /  9.7 km/h 57 % 0.00 in /  0 mm
09:08 20.8 °F /  -6.2 °C 7.9 °F /  -13.4 °C 30.50 in /  1032.7 hPa WNW 2.1 mph /  3.4 km/h 9.2 mph /  14.8 km/h 57 % 0.00 in /  0 mm
09:11 20.8 °F /  -6.2 °C 8.3 °F /  -13.2 °C 30.50 in /  1032.7 hPa WNW 3.1 mph /  5 km/h 6.9 mph /  11.1 km/h 58 % 0.00 in /  0 mm
09:16 20.8 °F /  -6.2 °C 7.9 °F /  -13.4 °C 30.50 in /  1032.7 hPa West 0.7 mph /  1.1 km/h 4.0 mph /  6.4 km/h 57 % 0.00 in /  0 mm
09:17 20.8 °F /  -6.2 °C 7.9 °F /  -13.4 °C 30.50 in /  1032.7 hPa WNW 2.9 mph /  4.7 km/h 6.9 mph /  11.1 km/h 57 % 0.00 in /  0 mm
09:19 20.8 °F /  -6.2 °C 7.9 °F /  -13.4 °C 30.50 in /  1032.7 hPa WNW 5.2 mph /  8.4 km/h 9.2 mph /  14.8 km/h 57 % 0.00 in /  0 mm
09:24 20.8 °F /  -6.2 °C 8.3 °F /  -13.2 °C 30.50 in /  1032.7 hPa WNW 4.1 mph /  6.6 km/h 6.9 mph /  11.1 km/h 58 % 0.00 in /  0 mm
09:25 20.8 °F /  -6.2 °C 8.3 °F /  -13.2 °C 30.50 in /  1032.7 hPa NW 3.1 mph /  5 km/h 9.2 mph /  14.8 km/h 58 % 0.00 in /  0 mm
09:30 20.8 °F /  -6.2 °C 7.9 °F /  -13.4 °C 30.51 in /  1033.1 hPa WNW 6.3 mph /  10.1 km/h 11.5 mph /  18.5 km/h 57 % 0.00 in /  0 mm
09:32 20.8 °F /  -6.2 °C 7.9 °F /  -13.4 °C 30.51 in /  1033.1 hPa WSW 1.6 mph /  2.6 km/h 6.9 mph /  11.1 km/h 57 % 0.00 in /  0 mm
09:37 20.8 °F /  -6.2 °C 8.3 °F /  -13.2 °C 30.51 in /  1033.1 hPa NNW 2.0 mph /  3.2 km/h 4.0 mph /  6.4 km/h 58 % 0.00 in /  0 mm
09:43 20.8 °F /  -6.2 °C 8.7 °F /  -12.9 °C 30.51 in /  1033.1 hPa West 3.4 mph /  5.5 km/h 5.8 mph /  9.3 km/h 59 % 0.00 in /  0 mm
09:44 20.9 °F /  -6.2 °C 8.8 °F /  -12.9 °C 30.51 in /  1033.1 hPa WNW 6.8 mph /  10.9 km/h 11.5 mph /  18.5 km/h 59 % 0.00 in /  0 mm
09:49 21.0 °F /  -6.1 °C 8.9 °F /  -12.8 °C 30.51 in /  1033.1 hPa WSW 5.0 mph /  8 km/h 6.9 mph /  11.1 km/h 59 % 0.00 in /  0 mm
09:50 21.0 °F /  -6.1 °C 8.9 °F /  -12.8 °C 30.51 in /  1033.1 hPa West 5.3 mph /  8.5 km/h 9.0 mph /  14.5 km/h 59 % 0.00 in /  0 mm
09:55 21.1 °F /  -6.1 °C 9.0 °F /  -12.8 °C 30.51 in /  1033.1 hPa NW 3.9 mph /  6.3 km/h 6.9 mph /  11.1 km/h 59 % 0.00 in /  0 mm
09:57 21.2 °F /  -6 °C 9.1 °F /  -12.7 °C 30.51 in /  1033.1 hPa WNW 3.4 mph /  5.5 km/h 6.9 mph /  11.1 km/h 59 % 0.00 in /  0 mm
10:03 21.3 °F /  -5.9 °C 8.8 °F /  -12.9 °C 30.51 in /  1033.1 hPa WSW 5.3 mph /  8.5 km/h 7.0 mph /  11.3 km/h 58 % 0.00 in /  0 mm
10:04 21.4 °F /  -5.9 °C 8.5 °F /  -13.1 °C 30.51 in /  1033.1 hPa WSW 6.6 mph /  10.6 km/h 11.5 mph /  18.5 km/h 57 % 0.00 in /  0 mm
10:08 21.6 °F /  -5.8 °C 8.3 °F /  -13.2 °C 30.51 in /  1033.1 hPa NW 5.0 mph /  8 km/h 8.1 mph /  13 km/h 56 % 0.00 in /  0 mm
10:13 21.7 °F /  -5.7 °C 8.4 °F /  -13.1 °C 30.51 in /  1033.1 hPa NW 4.9 mph /  7.9 km/h 11.5 mph /  18.5 km/h 56 % 0.00 in /  0 mm
10:14 21.8 °F /  -5.7 °C 8.1 °F /  -13.3 °C 30.51 in /  1033.1 hPa NW 4.0 mph /  6.4 km/h 8.1 mph /  13 km/h 55 % 0.00 in /  0 mm
10:19 22.0 °F /  -5.6 °C 8.3 °F /  -13.2 °C 30.51 in /  1033.1 hPa NW 4.1 mph /  6.6 km/h 11.5 mph /  18.5 km/h 55 % 0.00 in /  0 mm
10:20 22.0 °F /  -5.6 °C 8.3 °F /  -13.2 °C 30.51 in /  1033.1 hPa WNW 1.8 mph /  2.9 km/h 5.0 mph /  8 km/h 55 % 0.00 in /  0 mm
10:25 22.2 °F /  -5.4 °C 8.5 °F /  -13.1 °C 30.51 in /  1033.1 hPa WNW 5.7 mph /  9.2 km/h 9.2 mph /  14.8 km/h 55 % 0.00 in /  0 mm
10:27 22.2 °F /  -5.4 °C 8.1 °F /  -13.3 °C 30.51 in /  1033.1 hPa NW 6.4 mph /  10.3 km/h 11.5 mph /  18.5 km/h 54 % 0.00 in /  0 mm
10:32 22.4 °F /  -5.3 °C 7.4 °F /  -13.7 °C 30.51 in /  1033.1 hPa WNW 5.6 mph /  9 km/h 8.1 mph /  13 km/h 52 % 0.00 in /  0 mm
10:37 22.5 °F /  -5.3 °C 7.5 °F /  -13.6 °C 30.51 in /  1033.1 hPa WSW 3.8 mph /  6.1 km/h 10.4 mph /  16.7 km/h 52 % 0.00 in /  0 mm
10:39 22.5 °F /  -5.3 °C 7.5 °F /  -13.6 °C 30.50 in /  1032.7 hPa West 5.3 mph /  8.5 km/h 11.5 mph /  18.5 km/h 52 % 0.00 in /  0 mm
10:44 22.5 °F /  -5.3 °C 7.9 °F /  -13.4 °C 30.50 in /  1032.7 hPa West 3.2 mph /  5.1 km/h 6.9 mph /  11.1 km/h 53 % 0.00 in /  0 mm
10:51 22.7 °F /  -5.2 °C 9.3 °F /  -12.6 °C 30.50 in /  1032.7 hPa WNW 2.9 mph /  4.7 km/h 4.6 mph /  7.4 km/h 56 % 0.00 in /  0 mm
10:53 22.7 °F /  -5.2 °C 9.3 °F /  -12.6 °C 30.50 in /  1032.7 hPa WNW 3.1 mph /  5 km/h 4.6 mph /  7.4 km/h 56 % 0.00 in /  0 mm
10:58 22.7 °F /  -5.2 °C 9.3 °F /  -12.6 °C 30.49 in /  1032.4 hPa West 3.1 mph /  5 km/h 6.0 mph /  9.7 km/h 56 % 0.00 in /  0 mm
11:03 22.9 °F /  -5.1 °C 9.1 °F /  -12.7 °C 30.49 in /  1032.4 hPa WNW 3.0 mph /  4.8 km/h 6.9 mph /  11.1 km/h 55 % 0.00 in /  0 mm
11:04 22.9 °F /  -5.1 °C 9.1 °F /  -12.7 °C 30.49 in /  1032.4 hPa West 6.0 mph /  9.7 km/h 10.4 mph /  16.7 km/h 55 % 0.00 in /  0 mm
11:09 22.9 °F /  -5.1 °C 7.9 °F /  -13.4 °C 30.49 in /  1032.4 hPa West 4.7 mph /  7.6 km/h 9.2 mph /  14.8 km/h 52 % 0.00 in /  0 mm
11:10 22.9 °F /  -5.1 °C 7.9 °F /  -13.4 °C 30.49 in /  1032.4 hPa WSW 5.7 mph /  9.2 km/h 8.1 mph /  13 km/h 52 % 0.00 in /  0 mm
11:15 22.9 °F /  -5.1 °C 7.9 °F /  -13.4 °C 30.49 in /  1032.4 hPa West 5.9 mph /  9.5 km/h 11.5 mph /  18.5 km/h 52 % 0.00 in /  0 mm
11:16 22.8 °F /  -5.1 °C 7.8 °F /  -13.4 °C 30.49 in /  1032.4 hPa WNW 3.0 mph /  4.8 km/h 9.2 mph /  14.8 km/h 52 % 0.00 in /  0 mm
11:21 22.8 °F /  -5.1 °C 7.4 °F /  -13.7 °C 30.49 in /  1032.4 hPa WNW 7.0 mph /  11.3 km/h 11.5 mph /  18.5 km/h 51 % 0.00 in /  0 mm
11:26 22.7 °F /  -5.2 °C 6.8 °F /  -14 °C 30.48 in /  1032.1 hPa WNW 7.0 mph /  11.3 km/h 11.5 mph /  18.5 km/h 50 % 0.00 in /  0 mm
11:29 22.7 °F /  -5.2 °C 6.8 °F /  -14 °C 30.48 in /  1032.1 hPa WNW 5.8 mph /  9.3 km/h 11.5 mph /  18.5 km/h 50 % 0.00 in /  0 mm
11:34 22.7 °F /  -5.2 °C 6.8 °F /  -14 °C 30.48 in /  1032.1 hPa WNW 1.8 mph /  2.9 km/h 9.2 mph /  14.8 km/h 50 % 0.00 in /  0 mm
11:37 22.6 °F /  -5.2 °C 6.7 °F /  -14.1 °C 30.47 in /  1031.7 hPa NW 3.7 mph /  6 km/h 9.2 mph /  14.8 km/h 50 % 0.00 in /  0 mm
11:41 22.6 °F /  -5.2 °C 7.2 °F /  -13.8 °C 30.48 in /  1032.1 hPa NW 5.7 mph /  9.2 km/h 7.0 mph /  11.3 km/h 51 % 0.00 in /  0 mm
11:43 22.6 °F /  -5.2 °C 6.7 °F /  -14.1 °C 30.48 in /  1032.1 hPa WNW 6.4 mph /  10.3 km/h 11.5 mph /  18.5 km/h 50 % 0.00 in /  0 mm
11:48 22.6 °F /  -5.2 °C 6.7 °F /  -14.1 °C 30.47 in /  1031.7 hPa WNW 2.5 mph /  4 km/h 3.5 mph /  5.6 km/h 50 % 0.00 in /  0 mm
11:49 22.6 °F /  -5.2 °C 6.7 °F /  -14.1 °C 30.47 in /  1031.7 hPa WNW 1.9 mph /  3.1 km/h 3.5 mph /  5.6 km/h 50 % 0.00 in /  0 mm
11:54 22.6 °F /  -5.2 °C 7.6 °F /  -13.6 °C 30.47 in /  1031.7 hPa WNW 5.0 mph /  8 km/h 10.4 mph /  16.7 km/h 52 % 0.00 in /  0 mm
11:55 22.6 °F /  -5.2 °C 7.6 °F /  -13.6 °C 30.47 in /  1031.7 hPa West 4.7 mph /  7.6 km/h 10.4 mph /  16.7 km/h 52 % 0.00 in /  0 mm
12:00 22.6 °F /  -5.2 °C 8.0 °F /  -13.3 °C 30.47 in /  1031.7 hPa NW 4.4 mph /  7.1 km/h 8.0 mph /  12.9 km/h 53 % 0.00 in /  0 mm
12:05 22.7 °F /  -5.2 °C 7.7 °F /  -13.5 °C 30.46 in /  1031.4 hPa WNW 4.4 mph /  7.1 km/h 9.2 mph /  14.8 km/h 52 % 0.00 in /  0 mm
12:06 22.8 °F /  -5.1 °C 7.4 °F /  -13.7 °C 30.46 in /  1031.4 hPa WNW 2.8 mph /  4.5 km/h 5.0 mph /  8 km/h 51 % 0.00 in /  0 mm
12:11 22.8 °F /  -5.1 °C 6.9 °F /  -13.9 °C 30.46 in /  1031.4 hPa NW 7.4 mph /  11.9 km/h 11.5 mph /  18.5 km/h 50 % 0.00 in /  0 mm
12:12 22.9 °F /  -5.1 °C 6.6 °F /  -14.1 °C 30.46 in /  1031.4 hPa WSW 5.2 mph /  8.4 km/h 12.7 mph /  20.4 km/h 49 % 0.00 in /  0 mm
12:17 23.0 °F /  -5 °C 7.1 °F /  -13.8 °C 30.46 in /  1031.4 hPa West 4.5 mph /  7.2 km/h 9.2 mph /  14.8 km/h 50 % 0.00 in /  0 mm
12:22 23.2 °F /  -4.9 °C 7.3 °F /  -13.7 °C 30.45 in /  1031 hPa SW 3.9 mph /  6.3 km/h 7.0 mph /  11.3 km/h 50 % 0.00 in /  0 mm
12:27 23.7 °F /  -4.6 °C 8.2 °F /  -13.2 °C 30.45 in /  1031 hPa WSW 5.8 mph /  9.3 km/h 6.9 mph /  11.1 km/h 51 % 0.00 in /  0 mm
12:31 24.0 °F /  -4.4 °C 8.0 °F /  -13.3 °C 30.46 in /  1031.4 hPa NNW 6.2 mph /  10 km/h 13.8 mph /  22.2 km/h 50 % 0.00 in /  0 mm
12:36 24.3 °F /  -4.3 °C 8.3 °F /  -13.2 °C 30.45 in /  1031 hPa WNW 3.2 mph /  5.1 km/h 6.9 mph /  11.1 km/h 50 % 0.00 in /  0 mm
12:39 24.5 °F /  -4.2 °C 8.0 °F /  -13.3 °C 30.44 in /  1030.7 hPa NW 3.4 mph /  5.5 km/h 6.0 mph /  9.7 km/h 49 % 0.00 in /  0 mm
12:44 24.7 °F /  -4.1 °C 7.8 °F /  -13.4 °C 30.44 in /  1030.7 hPa NW 3.5 mph /  5.6 km/h 9.2 mph /  14.8 km/h 48 % 0.00 in /  0 mm
12:48 24.8 °F /  -4 °C 7.4 °F /  -13.7 °C 30.44 in /  1030.7 hPa NW 3.6 mph /  5.8 km/h 8.1 mph /  13 km/h 47 % 0.00 in /  0 mm
12:53 24.9 °F /  -3.9 °C 8.0 °F /  -13.3 °C 30.44 in /  1030.7 hPa WNW 7.7 mph /  12.4 km/h 10.4 mph /  16.7 km/h 48 % 0.00 in /  0 mm
12:58 25.0 °F /  -3.9 °C 7.6 °F /  -13.6 °C 30.43 in /  1030.4 hPa NW 7.5 mph /  12.1 km/h 15.0 mph /  24.1 km/h 47 % 0.00 in /  0 mm
13:03 25.0 °F /  -3.9 °C 7.6 °F /  -13.6 °C 30.43 in /  1030.4 hPa SW 6.9 mph /  11.1 km/h 9.2 mph /  14.8 km/h 47 % 0.00 in /  0 mm
13:04 25.0 °F /  -3.9 °C 7.1 °F /  -13.8 °C 30.43 in /  1030.4 hPa WNW 6.4 mph /  10.3 km/h 11.5 mph /  18.5 km/h 46 % 0.00 in /  0 mm
13:09 25.0 °F /  -3.9 °C 7.6 °F /  -13.6 °C 30.43 in /  1030.4 hPa West 4.2 mph /  6.8 km/h 6.9 mph /  11.1 km/h 47 % 0.00 in /  0 mm
13:14 25.1 °F /  -3.8 °C 7.7 °F /  -13.5 °C 30.43 in /  1030.4 hPa WNW 4.0 mph /  6.4 km/h 6.0 mph /  9.7 km/h 47 % 0.00 in /  0 mm
13:19 25.1 °F /  -3.8 °C 6.2 °F /  -14.3 °C 30.43 in /  1030.4 hPa SW 8.3 mph /  13.4 km/h 11.5 mph /  18.5 km/h 44 % 0.00 in /  0 mm
13:20 25.1 °F /  -3.8 °C 6.2 °F /  -14.3 °C 30.43 in /  1030.4 hPa West 8.3 mph /  13.4 km/h 11.5 mph /  18.5 km/h 44 % 0.00 in /  0 mm
13:26 24.9 °F /  -3.9 °C 6.5 °F /  -14.2 °C 30.42 in /  1030 hPa West 6.0 mph /  9.7 km/h 13.0 mph /  20.9 km/h 45 % 0.00 in /  0 mm
13:29 24.9 °F /  -3.9 °C 6.5 °F /  -14.2 °C 30.42 in /  1030 hPa NW 8.3 mph /  13.4 km/h 8.3 mph /  13.4 km/h 45 % 0.00 in /  0 mm
13:34 24.9 °F /  -3.9 °C 6.0 °F /  -14.4 °C 30.42 in /  1030 hPa West 5.9 mph /  9.5 km/h 6.0 mph /  9.7 km/h 44 % 0.00 in /  0 mm
13:39 24.8 °F /  -4 °C 5.4 °F /  -14.8 °C 30.42 in /  1030 hPa WSW 6.3 mph /  10.1 km/h 10.4 mph /  16.7 km/h 43 % 0.00 in /  0 mm
13:40 24.8 °F /  -4 °C 4.9 °F /  -15.1 °C 30.42 in /  1030 hPa WSW 6.1 mph /  9.8 km/h 10.4 mph /  16.7 km/h 42 % 0.00 in /  0 mm
13:43 24.8 °F /  -4 °C 4.9 °F /  -15.1 °C 30.42 in /  1030 hPa NW 4.6 mph /  7.4 km/h 10.4 mph /  16.7 km/h 42 % 0.00 in /  0 mm
13:48 24.8 °F /  -4 °C 4.9 °F /  -15.1 °C 30.42 in /  1030 hPa West 6.5 mph /  10.5 km/h 12.7 mph /  20.4 km/h 42 % 0.00 in /  0 mm
13:52 24.8 °F /  -4 °C 5.4 °F /  -14.8 °C 30.42 in /  1030 hPa West 3.8 mph /  6.1 km/h 7.0 mph /  11.3 km/h 43 % 0.00 in /  0 mm
13:57 24.8 °F /  -4 °C 5.9 °F /  -14.5 °C 30.41 in /  1029.7 hPa NNW 1.2 mph /  1.9 km/h 2.3 mph /  3.7 km/h 44 % 0.00 in /  0 mm
13:59 24.9 °F /  -3.9 °C 6.5 °F /  -14.2 °C 30.42 in /  1030 hPa NW 6.3 mph /  10.1 km/h 9.2 mph /  14.8 km/h 45 % 0.00 in /  0 mm
14:05 25.0 °F /  -3.9 °C 6.1 °F /  -14.4 °C 30.42 in /  1030 hPa WSW 4.0 mph /  6.4 km/h 10.4 mph /  16.7 km/h 44 % 0.00 in /  0 mm
14:06 24.9 °F /  -3.9 °C 6.1 °F /  -14.4 °C 30.42 in /  1030 hPa WNW 5.0 mph /  8 km/h 12.0 mph /  19.3 km/h 44 % 0.00 in /  0 mm
14:07 25.0 °F /  -3.9 °C 5.6 °F /  -14.7 °C 30.42 in /  1030 hPa NW 4.7 mph /  7.6 km/h 11.5 mph /  18.5 km/h 43 % 0.00 in /  0 mm
14:12 24.9 °F /  -3.9 °C 5.5 °F /  -14.7 °C 30.42 in /  1030 hPa WNW 4.5 mph /  7.2 km/h 5.8 mph /  9.3 km/h 43 % 0.00 in /  0 mm
14:15 24.9 °F /  -3.9 °C 6.5 °F /  -14.2 °C 30.42 in /  1030 hPa NW 5.2 mph /  8.4 km/h 10.4 mph /  16.7 km/h 45 % 0.00 in /  0 mm
14:20 24.7 °F /  -4.1 °C 5.3 °F /  -14.8 °C 30.42 in /  1030 hPa WSW 3.4 mph /  5.5 km/h 8.1 mph /  13 km/h 43 % 0.00 in /  0 mm
14:23 24.6 °F /  -4.1 °C 5.3 °F /  -14.8 °C 30.42 in /  1030 hPa West 6.4 mph /  10.3 km/h 10.4 mph /  16.7 km/h 43 % 0.00 in /  0 mm
14:27 24.5 °F /  -4.2 °C 5.7 °F /  -14.6 °C 30.42 in /  1030 hPa NNW 4.3 mph /  6.9 km/h 10.4 mph /  16.7 km/h 44 % 0.00 in /  0 mm
14:28 24.5 °F /  -4.2 °C 5.2 °F /  -14.9 °C 30.42 in /  1030 hPa WSW 6.6 mph /  10.6 km/h 9.2 mph /  14.8 km/h 43 % 0.00 in /  0 mm
14:33 24.3 °F /  -4.3 °C 5.5 °F /  -14.7 °C 30.42 in /  1030 hPa WNW 4.5 mph /  7.2 km/h 8.1 mph /  13 km/h 44 % 0.00 in /  0 mm
14:35 24.2 °F /  -4.3 °C 5.4 °F /  -14.8 °C 30.42 in /  1030 hPa NNW 4.7 mph /  7.6 km/h 8.1 mph /  13 km/h 44 % 0.00 in /  0 mm
14:40 24.0 °F /  -4.4 °C 5.2 °F /  -14.9 °C 30.41 in /  1029.7 hPa WNW 3.9 mph /  6.3 km/h 6.9 mph /  11.1 km/h 44 % 0.00 in /  0 mm
14:44 24.0 °F /  -4.4 °C 6.2 °F /  -14.3 °C 30.41 in /  1029.7 hPa WNW 5.4 mph /  8.7 km/h 11.5 mph /  18.5 km/h 46 % 0.00 in /  0 mm
14:49 23.8 °F /  -4.6 °C 5.0 °F /  -15 °C 30.41 in /  1029.7 hPa NNW 3.8 mph /  6.1 km/h 6.9 mph /  11.1 km/h 44 % 0.00 in /  0 mm
14:52 23.8 °F /  -4.6 °C 5.0 °F /  -15 °C 30.41 in /  1029.7 hPa WNW 4.6 mph /  7.4 km/h 10.4 mph /  16.7 km/h 44 % 0.00 in /  0 mm
14:57 23.6 °F /  -4.7 °C 5.3 °F /  -14.8 °C 30.41 in /  1029.7 hPa NW 3.3 mph /  5.3 km/h 6.9 mph /  11.1 km/h 45 % 0.00 in /  0 mm
14:58 23.7 °F /  -4.6 °C 5.4 °F /  -14.8 °C 30.42 in /  1030 hPa West 3.7 mph /  6 km/h 6.9 mph /  11.1 km/h 45 % 0.00 in /  0 mm
15:03 23.6 °F /  -4.7 °C 5.3 °F /  -14.8 °C 30.41 in /  1029.7 hPa NW 6.6 mph /  10.6 km/h 8.1 mph /  13 km/h 45 % 0.00 in /  0 mm
15:04 23.6 °F /  -4.7 °C 5.3 °F /  -14.8 °C 30.42 in /  1030 hPa NNW 4.2 mph /  6.8 km/h 8.1 mph /  13 km/h 45 % 0.00 in /  0 mm
15:09 23.5 °F /  -4.7 °C 5.7 °F /  -14.6 °C 30.42 in /  1030 hPa WNW 3.6 mph /  5.8 km/h 9.2 mph /  14.8 km/h 46 % 0.00 in /  0 mm
15:14 23.4 °F /  -4.8 °C 4.7 °F /  -15.2 °C 30.42 in /  1030 hPa North 5.0 mph /  8 km/h 9.2 mph /  14.8 km/h 44 % 0.00 in /  0 mm
15:18 23.4 °F /  -4.8 °C 5.2 °F /  -14.9 °C 30.42 in /  1030 hPa WNW 2.3 mph /  3.7 km/h 3.5 mph /  5.6 km/h 45 % 0.00 in /  0 mm
15:23 23.4 °F /  -4.8 °C 5.2 °F /  -14.9 °C 30.42 in /  1030 hPa WNW 3.6 mph /  5.8 km/h 10.4 mph /  16.7 km/h 45 % 0.00 in /  0 mm
15:24 23.3 °F /  -4.8 °C 5.1 °F /  -14.9 °C 30.42 in /  1030 hPa WNW 2.4 mph /  3.9 km/h 10.4 mph /  16.7 km/h 45 % 0.00 in /  0 mm
15:26 23.3 °F /  -4.8 °C 4.6 °F /  -15.2 °C 30.42 in /  1030 hPa NW 2.9 mph /  4.7 km/h 5.8 mph /  9.3 km/h 44 % 0.00 in /  0 mm
15:31 23.3 °F /  -4.8 °C 5.1 °F /  -14.9 °C 30.42 in /  1030 hPa NW 4.7 mph /  7.6 km/h 9.2 mph /  14.8 km/h 45 % 0.00 in /  0 mm
15:33 23.3 °F /  -4.8 °C 5.5 °F /  -14.7 °C 30.42 in /  1030 hPa WNW 7.6 mph /  12.2 km/h 12.7 mph /  20.4 km/h 46 % 0.00 in /  0 mm
15:37 23.2 °F /  -4.9 °C 5.4 °F /  -14.8 °C 30.43 in /  1030.4 hPa NNW 4.5 mph /  7.2 km/h 9.2 mph /  14.8 km/h 46 % 0.00 in /  0 mm
15:41 23.2 °F /  -4.9 °C 5.4 °F /  -14.8 °C 30.42 in /  1030 hPa West 2.1 mph /  3.4 km/h 3.5 mph /  5.6 km/h 46 % 0.00 in /  0 mm
15:46 23.2 °F /  -4.9 °C 5.4 °F /  -14.8 °C 30.42 in /  1030 hPa WNW 3.1 mph /  5 km/h 6.0 mph /  9.7 km/h 46 % 0.00 in /  0 mm
15:51 23.1 °F /  -4.9 °C 5.4 °F /  -14.8 °C 30.42 in /  1030 hPa WNW 1.8 mph /  2.9 km/h 3.5 mph /  5.6 km/h 46 % 0.00 in /  0 mm
15:56 23.1 °F /  -4.9 °C 5.8 °F /  -14.6 °C 30.42 in /  1030 hPa WNW 0.5 mph /  0.8 km/h 6.9 mph /  11.1 km/h 47 % 0.00 in /  0 mm
16:01 23.0 °F /  -5 °C 6.2 °F /  -14.3 °C 30.42 in /  1030 hPa WNW 2.1 mph /  3.4 km/h 5.8 mph /  9.3 km/h 48 % 0.00 in /  0 mm
16:02 23.0 °F /  -5 °C 6.2 °F /  -14.3 °C 30.42 in /  1030 hPa WNW 1.7 mph /  2.7 km/h 5.8 mph /  9.3 km/h 48 % 0.00 in /  0 mm
16:06 23.0 °F /  -5 °C 5.7 °F /  -14.6 °C 30.42 in /  1030 hPa WSW 3.2 mph /  5.1 km/h 6.9 mph /  11.1 km/h 47 % 0.00 in /  0 mm
16:11 22.9 °F /  -5.1 °C 5.6 °F /  -14.7 °C 30.42 in /  1030 hPa NW 5.3 mph /  8.5 km/h 8.1 mph /  13 km/h 47 % 0.00 in /  0 mm
16:16 22.9 °F /  -5.1 °C 6.1 °F /  -14.4 °C 30.42 in /  1030 hPa NNW 4.3 mph /  6.9 km/h 8.1 mph /  13 km/h 48 % 0.00 in /  0 mm
16:17 22.9 °F /  -5.1 °C 6.1 °F /  -14.4 °C 30.42 in /  1030 hPa WNW 4.8 mph /  7.7 km/h 8.1 mph /  13 km/h 48 % 0.00 in /  0 mm
16:22 22.8 °F /  -5.1 °C 5.6 °F /  -14.7 °C 30.42 in /  1030 hPa WNW 2.2 mph /  3.5 km/h 6.9 mph /  11.1 km/h 47 % 0.00 in /  0 mm
16:27 22.8 °F /  -5.1 °C 6.0 °F /  -14.4 °C 30.43 in /  1030.4 hPa WNW 1.2 mph /  1.9 km/h 3.5 mph /  5.6 km/h 48 % 0.00 in /  0 mm
16:32 22.7 °F /  -5.2 °C 5.9 °F /  -14.5 °C 30.43 in /  1030.4 hPa WNW 5.0 mph /  8 km/h 8.1 mph /  13 km/h 48 % 0.00 in /  0 mm
16:38 22.7 °F /  -5.2 °C 5.5 °F /  -14.7 °C 30.43 in /  1030.4 hPa WNW 3.4 mph /  5.5 km/h 8.1 mph /  13 km/h 47 % 0.00 in /  0 mm
16:43 22.7 °F /  -5.2 °C 5.5 °F /  -14.7 °C 30.43 in /  1030.4 hPa NW 2.4 mph /  3.9 km/h 5.8 mph /  9.3 km/h 47 % 0.00 in /  0 mm
16:48 22.7 °F /  -5.2 °C 5.9 °F /  -14.5 °C 30.43 in /  1030.4 hPa NW 3.8 mph /  6.1 km/h 7.0 mph /  11.3 km/h 48 % 0.00 in /  0 mm
16:49 22.7 °F /  -5.2 °C 5.9 °F /  -14.5 °C 30.43 in /  1030.4 hPa North 4.9 mph /  7.9 km/h 6.9 mph /  11.1 km/h 48 % 0.00 in /  0 mm
16:54 22.8 °F /  -5.1 °C 6.0 °F /  -14.4 °C 30.44 in /  1030.7 hPa North 2.7 mph /  4.3 km/h 4.6 mph /  7.4 km/h 48 % 0.00 in /  0 mm
16:56 22.7 °F /  -5.2 °C 5.9 °F /  -14.5 °C 30.43 in /  1030.4 hPa North 3.1 mph /  5 km/h 4.6 mph /  7.4 km/h 48 % 0.00 in /  0 mm
17:01 22.7 °F /  -5.2 °C 5.9 °F /  -14.5 °C 30.44 in /  1030.7 hPa NW 4.0 mph /  6.4 km/h 5.0 mph /  8 km/h 48 % 0.00 in /  0 mm
17:07 22.8 °F /  -5.1 °C 6.0 °F /  -14.4 °C 30.44 in /  1030.7 hPa NNW 3.3 mph /  5.3 km/h 9.2 mph /  14.8 km/h 48 % 0.00 in /  0 mm
17:12 22.7 °F /  -5.2 °C 5.9 °F /  -14.5 °C 30.44 in /  1030.7 hPa NNW 5.3 mph /  8.5 km/h 10.4 mph /  16.7 km/h 48 % 0.00 in /  0 mm
17:14 22.7 °F /  -5.2 °C 5.5 °F /  -14.7 °C 30.44 in /  1030.7 hPa NNW 2.4 mph /  3.9 km/h 9.2 mph /  14.8 km/h 47 % 0.00 in /  0 mm
17:19 22.7 °F /  -5.2 °C 5.9 °F /  -14.5 °C 30.44 in /  1030.7 hPa NNW 1.3 mph /  2.1 km/h 3.5 mph /  5.6 km/h 48 % 0.00 in /  0 mm
17:24 22.7 °F /  -5.2 °C 5.9 °F /  -14.5 °C 30.45 in /  1031 hPa NNW 5.4 mph /  8.7 km/h 10.0 mph /  16.1 km/h 48 % 0.00 in /  0 mm
17:26 22.7 °F /  -5.2 °C 6.4 °F /  -14.2 °C 30.45 in /  1031 hPa WNW 3.2 mph /  5.1 km/h 10.4 mph /  16.7 km/h 49 % 0.00 in /  0 mm
17:31 22.7 °F /  -5.2 °C 6.4 °F /  -14.2 °C 30.45 in /  1031 hPa NNW 2.0 mph /  3.2 km/h 11.5 mph /  18.5 km/h 49 % 0.00 in /  0 mm
17:32 22.7 °F /  -5.2 °C 6.4 °F /  -14.2 °C 30.45 in /  1031 hPa NNW 1.0 mph /  1.6 km/h 1.2 mph /  1.9 km/h 49 % 0.00 in /  0 mm
17:35 22.7 °F /  -5.2 °C 5.9 °F /  -14.5 °C 30.45 in /  1031 hPa WNW 4.4 mph /  7.1 km/h 8.0 mph /  12.9 km/h 48 % 0.00 in /  0 mm
17:40 22.7 °F /  -5.2 °C 5.9 °F /  -14.5 °C 30.45 in /  1031 hPa North 5.4 mph /  8.7 km/h 11.5 mph /  18.5 km/h 48 % 0.00 in /  0 mm
17:42 22.7 °F /  -5.2 °C 5.9 °F /  -14.5 °C 30.45 in /  1031 hPa NNW 5.6 mph /  9 km/h 8.1 mph /  13 km/h 48 % 0.00 in /  0 mm
17:47 22.7 °F /  -5.2 °C 5.9 °F /  -14.5 °C 30.45 in /  1031 hPa NW 4.6 mph /  7.4 km/h 10.4 mph /  16.7 km/h 48 % 0.00 in /  0 mm
17:50 22.7 °F /  -5.2 °C 5.9 °F /  -14.5 °C 30.46 in /  1031.4 hPa NW 5.1 mph /  8.2 km/h 9.2 mph /  14.8 km/h 48 % 0.00 in /  0 mm
17:55 22.7 °F /  -5.2 °C 5.9 °F /  -14.5 °C 30.45 in /  1031 hPa NW 5.8 mph /  9.3 km/h 10.4 mph /  16.7 km/h 48 % 0.00 in /  0 mm
18:00 22.7 °F /  -5.2 °C 5.9 °F /  -14.5 °C 30.46 in /  1031.4 hPa North 6.5 mph /  10.5 km/h 12.7 mph /  20.4 km/h 48 % 0.00 in /  0 mm
18:05 22.7 °F /  -5.2 °C 5.5 °F /  -14.7 °C 30.46 in /  1031.4 hPa NNW 4.8 mph /  7.7 km/h 6.9 mph /  11.1 km/h 47 % 0.00 in /  0 mm
18:06 22.7 °F /  -5.2 °C 5.5 °F /  -14.7 °C 30.46 in /  1031.4 hPa NW 5.2 mph /  8.4 km/h 11.5 mph /  18.5 km/h 47 % 0.00 in /  0 mm
18:11 22.7 °F /  -5.2 °C 5.5 °F /  -14.7 °C 30.46 in /  1031.4 hPa WNW 6.6 mph /  10.6 km/h 14.0 mph /  22.5 km/h 47 % 0.00 in /  0 mm
18:12 22.7 °F /  -5.2 °C 5.9 °F /  -14.5 °C 30.46 in /  1031.4 hPa WNW 5.1 mph /  8.2 km/h 13.8 mph /  22.2 km/h 48 % 0.00 in /  0 mm
18:13 22.7 °F /  -5.2 °C 5.9 °F /  -14.5 °C 30.46 in /  1031.4 hPa NW 6.2 mph /  10 km/h 11.5 mph /  18.5 km/h 48 % 0.00 in /  0 mm
18:18 22.7 °F /  -5.2 °C 5.0 °F /  -15 °C 30.46 in /  1031.4 hPa North 5.7 mph /  9.2 km/h 10.4 mph /  16.7 km/h 46 % 0.00 in /  0 mm
18:21 22.7 °F /  -5.2 °C 5.0 °F /  -15 °C 30.46 in /  1031.4 hPa NNW 5.0 mph /  8 km/h 9.2 mph /  14.8 km/h 46 % 0.00 in /  0 mm
18:26 22.7 °F /  -5.2 °C 5.5 °F /  -14.7 °C 30.46 in /  1031.4 hPa NNW 8.4 mph /  13.5 km/h 13.8 mph /  22.2 km/h 47 % 0.00 in /  0 mm
18:31 22.7 °F /  -5.2 °C 5.5 °F /  -14.7 °C 30.47 in /  1031.7 hPa NW 7.1 mph /  11.4 km/h 13.8 mph /  22.2 km/h 47 % 0.00 in /  0 mm
18:32 22.7 °F /  -5.2 °C 5.0 °F /  -15 °C 30.46 in /  1031.4 hPa NW 5.3 mph /  8.5 km/h 11.5 mph /  18.5 km/h 46 % 0.00 in /  0 mm
18:37 22.6 °F /  -5.2 °C 5.8 °F /  -14.6 °C 30.47 in /  1031.7 hPa WNW 5.9 mph /  9.5 km/h 9.0 mph /  14.5 km/h 48 % 0.00 in /  0 mm
18:40 22.6 °F /  -5.2 °C 5.8 °F /  -14.6 °C 30.47 in /  1031.7 hPa NW 5.6 mph /  9 km/h 10.4 mph /  16.7 km/h 48 % 0.00 in /  0 mm
18:45 22.6 °F /  -5.2 °C 5.4 °F /  -14.8 °C 30.47 in /  1031.7 hPa NW 6.8 mph /  10.9 km/h 15.0 mph /  24.1 km/h 47 % 0.00 in /  0 mm
18:46 22.6 °F /  -5.2 °C 5.8 °F /  -14.6 °C 30.47 in /  1031.7 hPa NNW 6.1 mph /  9.8 km/h 11.5 mph /  18.5 km/h 48 % 0.00 in /  0 mm
18:52 22.6 °F /  -5.2 °C 5.4 °F /  -14.8 °C 30.47 in /  1031.7 hPa WNW 5.9 mph /  9.5 km/h 15.0 mph /  24.1 km/h 47 % 0.00 in /  0 mm
18:57 22.5 °F /  -5.3 °C 5.3 °F /  -14.8 °C 30.48 in /  1032.1 hPa NW 5.6 mph /  9 km/h 9.2 mph /  14.8 km/h 47 % 0.00 in /  0 mm
19:00 22.5 °F /  -5.3 °C 6.2 °F /  -14.3 °C 30.48 in /  1032.1 hPa NW 8.7 mph /  14 km/h 13.8 mph /  22.2 km/h 49 % 0.00 in /  0 mm
19:03 22.5 °F /  -5.3 °C 5.7 °F /  -14.6 °C 30.48 in /  1032.1 hPa North 3.7 mph /  6 km/h 11.0 mph /  17.7 km/h 48 % 0.00 in /  0 mm
19:08 22.5 °F /  -5.3 °C 7.1 °F /  -13.8 °C 30.48 in /  1032.1 hPa North 6.2 mph /  10 km/h 9.2 mph /  14.8 km/h 51 % 0.00 in /  0 mm
19:10 22.5 °F /  -5.3 °C 7.1 °F /  -13.8 °C 30.48 in /  1032.1 hPa NW 5.5 mph /  8.9 km/h 9.2 mph /  14.8 km/h 51 % 0.00 in /  0 mm
19:15 22.4 °F /  -5.3 °C 7.4 °F /  -13.7 °C 30.48 in /  1032.1 hPa North 7.8 mph /  12.6 km/h 13.8 mph /  22.2 km/h 52 % 0.00 in /  0 mm
19:16 22.4 °F /  -5.3 °C 7.4 °F /  -13.7 °C 30.47 in /  1031.7 hPa NNW 7.3 mph /  11.7 km/h 13.8 mph /  22.2 km/h 52 % 0.00 in /  0 mm
19:21 22.4 °F /  -5.3 °C 7.0 °F /  -13.9 °C 30.48 in /  1032.1 hPa NNW 6.0 mph /  9.7 km/h 20.0 mph /  32.2 km/h 51 % 0.00 in /  0 mm
19:26 22.2 °F /  -5.4 °C 7.2 °F /  -13.8 °C 30.48 in /  1032.1 hPa NW 7.6 mph /  12.2 km/h 11.5 mph /  18.5 km/h 52 % 0.00 in /  0 mm
19:27 22.2 °F /  -5.4 °C 7.2 °F /  -13.8 °C 30.48 in /  1032.1 hPa NNW 6.2 mph /  10 km/h 11.5 mph /  18.5 km/h 52 % 0.00 in /  0 mm
19:32 22.1 °F /  -5.5 °C 6.3 °F /  -14.3 °C 30.48 in /  1032.1 hPa NW 7.6 mph /  12.2 km/h 12.7 mph /  20.4 km/h 50 % 0.00 in /  0 mm
19:37 22.0 °F /  -5.6 °C 6.2 °F /  -14.3 °C 30.48 in /  1032.1 hPa North 7.4 mph /  11.9 km/h 13.8 mph /  22.2 km/h 50 % 0.00 in /  0 mm
19:38 22.0 °F /  -5.6 °C 7.0 °F /  -13.9 °C 30.48 in /  1032.1 hPa NNW 7.4 mph /  11.9 km/h 11.5 mph /  18.5 km/h 52 % 0.00 in /  0 mm
19:43 21.9 °F /  -5.6 °C 6.9 °F /  -13.9 °C 30.48 in /  1032.1 hPa NW 7.4 mph /  11.9 km/h 15.0 mph /  24.1 km/h 52 % 0.00 in /  0 mm
19:48 21.9 °F /  -5.6 °C 7.8 °F /  -13.4 °C 30.47 in /  1031.7 hPa NW 6.0 mph /  9.7 km/h 10.4 mph /  16.7 km/h 54 % 0.00 in /  0 mm
19:52 21.8 °F /  -5.7 °C 6.4 °F /  -14.2 °C 30.47 in /  1031.7 hPa NW 6.3 mph /  10.1 km/h 12.0 mph /  19.3 km/h 51 % 0.00 in /  0 mm
19:54 21.7 °F /  -5.7 °C 6.8 °F /  -14 °C 30.48 in /  1032.1 hPa North 6.5 mph /  10.5 km/h 12.0 mph /  19.3 km/h 52 % 0.00 in /  0 mm
19:59 21.6 °F /  -5.8 °C 6.2 °F /  -14.3 °C 30.48 in /  1032.1 hPa NNW 6.4 mph /  10.3 km/h 11.5 mph /  18.5 km/h 51 % 0.00 in /  0 mm
20:04 21.5 °F /  -5.8 °C 6.6 °F /  -14.1 °C 30.47 in /  1031.7 hPa NNW 5.3 mph /  8.5 km/h 13.8 mph /  22.2 km/h 52 % 0.00 in /  0 mm
20:08 21.4 °F /  -5.9 °C 6.0 °F /  -14.4 °C 30.48 in /  1032.1 hPa NNW 5.3 mph /  8.5 km/h 9.2 mph /  14.8 km/h 51 % 0.00 in /  0 mm
20:13 21.3 °F /  -5.9 °C 6.0 °F /  -14.4 °C 30.48 in /  1032.1 hPa WNW 5.3 mph /  8.5 km/h 9.2 mph /  14.8 km/h 51 % 0.00 in /  0 mm
20:14 21.3 °F /  -5.9 °C 6.0 °F /  -14.4 °C 30.48 in /  1032.1 hPa NW 7.0 mph /  11.3 km/h 13.8 mph /  22.2 km/h 51 % 0.00 in /  0 mm
20:19 21.2 °F /  -6 °C 5.4 °F /  -14.8 °C 30.48 in /  1032.1 hPa West 6.5 mph /  10.5 km/h 9.2 mph /  14.8 km/h 50 % 0.00 in /  0 mm
20:24 21.1 °F /  -6.1 °C 5.3 °F /  -14.8 °C 30.48 in /  1032.1 hPa NNW 7.7 mph /  12.4 km/h 18.4 mph /  29.6 km/h 50 % 0.00 in /  0 mm
20:29 21.0 °F /  -6.1 °C 4.8 °F /  -15.1 °C 30.48 in /  1032.1 hPa North 3.9 mph /  6.3 km/h 10.4 mph /  16.7 km/h 49 % 0.00 in /  0 mm
20:33 20.9 °F /  -6.2 °C 5.2 °F /  -14.9 °C 30.48 in /  1032.1 hPa NW 6.4 mph /  10.3 km/h 8.0 mph /  12.9 km/h 50 % 0.00 in /  0 mm
20:38 20.8 °F /  -6.2 °C 4.2 °F /  -15.4 °C 30.48 in /  1032.1 hPa NW 4.7 mph /  7.6 km/h 9.2 mph /  14.8 km/h 48 % 0.00 in /  0 mm
20:39 20.8 °F /  -6.2 °C 4.6 °F /  -15.2 °C 30.48 in /  1032.1 hPa NNW 7.8 mph /  12.6 km/h 12.7 mph /  20.4 km/h 49 % 0.00 in /  0 mm
20:44 20.7 °F /  -6.3 °C 4.5 °F /  -15.3 °C 30.48 in /  1032.1 hPa North 6.9 mph /  11.1 km/h 11.5 mph /  18.5 km/h 49 % 0.00 in /  0 mm
20:49 20.6 °F /  -6.3 °C 4.9 °F /  -15.1 °C 30.48 in /  1032.1 hPa NNW 8.0 mph /  12.9 km/h 12.7 mph /  20.4 km/h 50 % 0.00 in /  0 mm
20:51 20.6 °F /  -6.3 °C 4.9 °F /  -15.1 °C 30.48 in /  1032.1 hPa NW 6.0 mph /  9.7 km/h 13.0 mph /  20.9 km/h 50 % 0.00 in /  0 mm
20:54 20.5 °F /  -6.4 °C 4.8 °F /  -15.1 °C 30.48 in /  1032.1 hPa NW 2.9 mph /  4.7 km/h 9.2 mph /  14.8 km/h 50 % 0.00 in /  0 mm
20:59 20.4 °F /  -6.4 °C 4.7 °F /  -15.2 °C 30.48 in /  1032.1 hPa NNW 8.7 mph /  14 km/h 15.0 mph /  24.1 km/h 50 % 0.00 in /  0 mm
21:02 20.3 °F /  -6.5 °C 5.0 °F /  -15 °C 30.48 in /  1032.1 hPa WNW 10.3 mph /  16.6 km/h 15.0 mph /  24.1 km/h 51 % 0.00 in /  0 mm
21:03 20.3 °F /  -6.5 °C 4.6 °F /  -15.2 °C 30.48 in /  1032.1 hPa NNW 5.1 mph /  8.2 km/h 15.0 mph /  24.1 km/h 50 % 0.00 in /  0 mm
21:08 20.3 °F /  -6.5 °C 5.0 °F /  -15 °C 30.48 in /  1032.1 hPa NW 5.6 mph /  9 km/h 8.1 mph /  13 km/h 51 % 0.00 in /  0 mm
21:10 20.3 °F /  -6.5 °C 5.0 °F /  -15 °C 30.48 in /  1032.1 hPa NW 9.5 mph /  15.3 km/h 16.1 mph /  25.9 km/h 51 % 0.00 in /  0 mm
21:15 20.2 °F /  -6.6 °C 4.9 °F /  -15.1 °C 30.49 in /  1032.4 hPa WNW 6.6 mph /  10.6 km/h 10.0 mph /  16.1 km/h 51 % 0.00 in /  0 mm
21:20 20.2 °F /  -6.6 °C 5.8 °F /  -14.6 °C 30.49 in /  1032.4 hPa NW 8.6 mph /  13.8 km/h 11.0 mph /  17.7 km/h 53 % 0.00 in /  0 mm
21:25 20.0 °F /  -6.7 °C 5.2 °F /  -14.9 °C 30.49 in /  1032.4 hPa NW 3.1 mph /  5 km/h 11.5 mph /  18.5 km/h 52 % 0.00 in /  0 mm
21:26 20.0 °F /  -6.7 °C 4.7 °F /  -15.2 °C 30.49 in /  1032.4 hPa NNW 5.5 mph /  8.9 km/h 9.2 mph /  14.8 km/h 51 % 0.00 in /  0 mm
21:31 20.0 °F /  -6.7 °C 4.7 °F /  -15.2 °C 30.49 in /  1032.4 hPa NNW 9.3 mph /  15 km/h 17.3 mph /  27.8 km/h 51 % 0.00 in /  0 mm
21:36 19.9 °F /  -6.7 °C 4.7 °F /  -15.2 °C 30.49 in /  1032.4 hPa WNW 9.1 mph /  14.6 km/h 12.7 mph /  20.4 km/h 51 % 0.00 in /  0 mm
21:39 19.9 °F /  -6.7 °C 4.2 °F /  -15.4 °C 30.49 in /  1032.4 hPa WNW 8.3 mph /  13.4 km/h 15.0 mph /  24.1 km/h 50 % 0.00 in /  0 mm
21:44 19.8 °F /  -6.8 °C 4.6 °F /  -15.2 °C 30.49 in /  1032.4 hPa NNW 5.5 mph /  8.9 km/h 8.1 mph /  13 km/h 51 % 0.00 in /  0 mm
21:49 19.8 °F /  -6.8 °C 5.0 °F /  -15 °C 30.48 in /  1032.1 hPa NW 8.5 mph /  13.7 km/h 12.7 mph /  20.4 km/h 52 % 0.00 in /  0 mm
21:53 19.7 °F /  -6.8 °C 4.9 °F /  -15.1 °C 30.48 in /  1032.1 hPa West 6.7 mph /  10.8 km/h 11.5 mph /  18.5 km/h 52 % 0.00 in /  0 mm
21:58 19.7 °F /  -6.8 °C 4.5 °F /  -15.3 °C 30.48 in /  1032.1 hPa NW 6.4 mph /  10.3 km/h 11.5 mph /  18.5 km/h 51 % 0.00 in /  0 mm
21:59 19.7 °F /  -6.8 °C 4.5 °F /  -15.3 °C 30.48 in /  1032.1 hPa WNW 3.4 mph /  5.5 km/h 11.5 mph /  18.5 km/h 51 % 0.00 in /  0 mm
22:05 19.6 °F /  -6.9 °C 4.4 °F /  -15.3 °C 30.49 in /  1032.4 hPa West 4.6 mph /  7.4 km/h 5.8 mph /  9.3 km/h 51 % 0.00 in /  0 mm
22:06 19.6 °F /  -6.9 °C 4.8 °F /  -15.1 °C 30.49 in /  1032.4 hPa NW 4.9 mph /  7.9 km/h 11.5 mph /  18.5 km/h 52 % 0.00 in /  0 mm
22:12 19.5 °F /  -6.9 °C 4.3 °F /  -15.4 °C 30.49 in /  1032.4 hPa NNW 6.7 mph /  10.8 km/h 12.0 mph /  19.3 km/h 51 % 0.00 in /  0 mm
22:17 19.4 °F /  -7 °C 4.2 °F /  -15.4 °C 30.49 in /  1032.4 hPa NW 5.9 mph /  9.5 km/h 19.6 mph /  31.5 km/h 51 % 0.00 in /  0 mm
22:19 19.4 °F /  -7 °C 4.2 °F /  -15.4 °C 30.49 in /  1032.4 hPa WNW 7.4 mph /  11.9 km/h 13.8 mph /  22.2 km/h 51 % 0.00 in /  0 mm
22:24 19.4 °F /  -7 °C 5.0 °F /  -15 °C 30.49 in /  1032.4 hPa NW 7.5 mph /  12.1 km/h 16.1 mph /  25.9 km/h 53 % 0.00 in /  0 mm
22:26 19.4 °F /  -7 °C 4.2 °F /  -15.4 °C 30.49 in /  1032.4 hPa NW 3.3 mph /  5.3 km/h 10.0 mph /  16.1 km/h 51 % 0.00 in /  0 mm
22:31 19.4 °F /  -7 °C 4.2 °F /  -15.4 °C 30.49 in /  1032.4 hPa NW 9.3 mph /  15 km/h 13.8 mph /  22.2 km/h 51 % 0.00 in /  0 mm
22:36 19.4 °F /  -7 °C 4.6 °F /  -15.2 °C 30.49 in /  1032.4 hPa West 5.7 mph /  9.2 km/h 9.0 mph /  14.5 km/h 52 % 0.00 in /  0 mm
22:41 19.3 °F /  -7.1 °C 4.1 °F /  -15.5 °C 30.49 in /  1032.4 hPa NNW 5.3 mph /  8.5 km/h 11.5 mph /  18.5 km/h 51 % 0.00 in /  0 mm
22:42 19.3 °F /  -7.1 °C 4.1 °F /  -15.5 °C 30.49 in /  1032.4 hPa NW 5.8 mph /  9.3 km/h 11.5 mph /  18.5 km/h 51 % 0.00 in /  0 mm
22:44 19.3 °F /  -7.1 °C 4.1 °F /  -15.5 °C 30.49 in /  1032.4 hPa WNW 5.9 mph /  9.5 km/h 15.0 mph /  24.1 km/h 51 % 0.00 in /  0 mm
22:47 19.3 °F /  -7.1 °C 4.9 °F /  -15.1 °C 30.49 in /  1032.4 hPa NW 4.9 mph /  7.9 km/h 10.4 mph /  16.7 km/h 53 % 0.00 in /  0 mm
22:52 19.3 °F /  -7.1 °C 4.5 °F /  -15.3 °C 30.49 in /  1032.4 hPa WNW 8.3 mph /  13.4 km/h 15.0 mph /  24.1 km/h 52 % 0.00 in /  0 mm
22:53 19.3 °F /  -7.1 °C 4.5 °F /  -15.3 °C 30.49 in /  1032.4 hPa WSW 6.6 mph /  10.6 km/h 12.7 mph /  20.4 km/h 52 % 0.00 in /  0 mm
22:58 19.2 °F /  -7.1 °C 4.0 °F /  -15.6 °C 30.49 in /  1032.4 hPa WNW 8.7 mph /  14 km/h 13.8 mph /  22.2 km/h 51 % 0.00 in /  0 mm
23:04 19.2 °F /  -7.1 °C 4.4 °F /  -15.3 °C 30.48 in /  1032.1 hPa NW 7.1 mph /  11.4 km/h 12.7 mph /  20.4 km/h 52 % 0.00 in /  0 mm
23:09 19.2 °F /  -7.1 °C 4.4 °F /  -15.3 °C 30.48 in /  1032.1 hPa NW 8.2 mph /  13.2 km/h 13.8 mph /  22.2 km/h 52 % 0.00 in /  0 mm
23:12 19.2 °F /  -7.1 °C 4.4 °F /  -15.3 °C 30.48 in /  1032.1 hPa WNW 9.0 mph /  14.5 km/h 11.5 mph /  18.5 km/h 52 % 0.00 in /  0 mm
23:14 19.2 °F /  -7.1 °C 4.0 °F /  -15.6 °C 30.48 in /  1032.1 hPa WNW 5.9 mph /  9.5 km/h 10.0 mph /  16.1 km/h 51 % 0.00 in /  0 mm
23:19 19.1 °F /  -7.2 °C 4.8 °F /  -15.1 °C 30.48 in /  1032.1 hPa NW 7.4 mph /  11.9 km/h 10.0 mph /  16.1 km/h 53 % 0.00 in /  0 mm
23:24 19.1 °F /  -7.2 °C 3.9 °F /  -15.6 °C 30.48 in /  1032.1 hPa WNW 5.3 mph /  8.5 km/h 11.5 mph /  18.5 km/h 51 % 0.00 in /  0 mm
23:25 19.0 °F /  -7.2 °C 4.2 °F /  -15.4 °C 30.48 in /  1032.1 hPa NW 5.4 mph /  8.7 km/h 8.1 mph /  13 km/h 52 % 0.00 in /  0 mm
23:30 19.0 °F /  -7.2 °C 4.7 °F /  -15.2 °C 30.47 in /  1031.7 hPa NNW 10.4 mph /  16.7 km/h 15.0 mph /  24.1 km/h 53 % 0.00 in /  0 mm
23:33 19.0 °F /  -7.2 °C 4.7 °F /  -15.2 °C 30.47 in /  1031.7 hPa NNW 3.2 mph /  5.1 km/h 6.9 mph /  11.1 km/h 53 % 0.00 in /  0 mm
23:35 18.9 °F /  -7.3 °C 4.6 °F /  -15.2 °C 30.47 in /  1031.7 hPa West 11.8 mph /  19 km/h 19.6 mph /  31.5 km/h 53 % 0.00 in /  0 mm
23:37 18.9 °F /  -7.3 °C 4.1 °F /  -15.5 °C 30.47 in /  1031.7 hPa NW 9.4 mph /  15.1 km/h 15.0 mph /  24.1 km/h 52 % 0.00 in /  0 mm
23:39 18.9 °F /  -7.3 °C 4.1 °F /  -15.5 °C 30.47 in /  1031.7 hPa WNW 5.0 mph /  8 km/h 15.0 mph /  24.1 km/h 52 % 0.00 in /  0 mm
23:44 18.8 °F /  -7.3 °C 4.9 °F /  -15.1 °C 30.47 in /  1031.7 hPa NW 6.9 mph /  11.1 km/h 13.8 mph /  22.2 km/h 54 % 0.00 in /  0 mm
23:49 18.7 °F /  -7.4 °C 4.4 °F /  -15.3 °C 30.47 in /  1031.7 hPa WNW 8.5 mph /  13.7 km/h 16.1 mph /  25.9 km/h 53 % 0.00 in /  0 mm
23:50 18.6 °F /  -7.4 °C 4.3 °F /  -15.4 °C 30.47 in /  1031.7 hPa WNW 7.1 mph /  11.4 km/h 12.0 mph /  19.3 km/h 53 % 0.00 in /  0 mm
23:55 18.6 °F /  -7.4 °C 4.7 °F /  -15.2 °C 30.47 in /  1031.7 hPa NW 7.7 mph /  12.4 km/h 12.7 mph /  20.4 km/h 54 % 0.00 in /  0 mm
23:57 18.6 °F /  -7.4 °C 5.1 °F /  -14.9 °C 30.47 in /  1031.7 hPa NW 6.7 mph /  10.8 km/h 17.3 mph /  27.8 km/h 55 % 0.00 in /  0 mm
Crab Meadow Weather
Compliments of Weather Underground - 3.5 mb

Script developed by  Jim McMurry - jmcmurry@mwt.net Adapted for the template by  Wim van der Kuil - Leuven-Template.eu

Recycling: Americans threw away 38 billion plastic water bottles in 2006. A million and a half barrels of oil - enough to fuel 100,000 cars for a year - were used to produce the bottles.